createdAt,value
2019-05-12T00:01:13.572Z,95.39
2019-05-12T00:03:44.516Z,95.40
2019-05-12T00:06:17.561Z,95.65
2019-05-12T00:08:48.755Z,96.15
2019-05-12T00:11:19.537Z,96.31
2019-05-12T00:13:50.516Z,96.56
2019-05-12T00:16:21.589Z,95.93
2019-05-12T00:18:52.411Z,95.59
2019-05-12T00:21:23.796Z,95.49
2019-05-12T00:24:12.757Z,95.49
2019-05-12T00:26:43.917Z,95.59
2019-05-12T00:29:14.878Z,95.95
2019-05-12T00:31:47.771Z,96.17
2019-05-12T00:34:18.632Z,96.36
2019-05-12T00:36:49.695Z,96.56
2019-05-12T00:39:20.756Z,96.74
2019-05-12T00:41:51.713Z,96.72
2019-05-12T00:44:22.572Z,95.82
2019-05-12T00:46:53.637Z,95.73
2019-05-12T00:49:24.592Z,95.69
2019-05-12T00:51:55.631Z,96.02
2019-05-12T00:54:28.461Z,96.16
2019-05-12T00:56:58.896Z,96.37
2019-05-12T00:59:29.840Z,96.58
2019-05-12T01:02:00.795Z,96.94
2019-05-12T01:04:31.670Z,96.86
2019-05-12T01:07:02.733Z,96.68
2019-05-12T01:09:33.596Z,96.58
2019-05-12T01:12:04.783Z,96.61
2019-05-12T01:14:35.400Z,96.81
2019-05-12T01:17:08.435Z,97.22
2019-05-12T01:19:40.472Z,97.22
2019-05-12T01:22:11.038Z,97.36
2019-05-12T01:24:41.995Z,97.60
2019-05-12T01:27:13.037Z,97.70
2019-05-12T01:29:44.115Z,97.70
2019-05-12T01:32:25.913Z,97.73
2019-05-12T01:34:57.786Z,97.58
2019-05-12T01:37:28.735Z,97.07
2019-05-12T01:40:00.207Z,96.92
2019-05-12T01:42:30.857Z,97.01
2019-05-12T01:45:01.822Z,97.12
2019-05-12T01:47:33.001Z,97.29
2019-05-12T01:50:04.184Z,97.48
2019-05-12T01:52:34.821Z,97.85
2019-05-12T01:55:08.142Z,98.22
2019-05-12T01:57:39.080Z,98.20
2019-05-12T02:00:13.801Z,98.25
2019-05-12T02:02:44.454Z,98.18
2019-05-12T02:05:15.330Z,97.90
2019-05-12T02:07:50.665Z,97.88
2019-05-12T02:10:23.455Z,98.08
2019-05-12T02:12:54.136Z,98.13
2019-05-12T02:15:25.093Z,98.10
2019-05-12T02:17:55.728Z,97.96
2019-05-12T02:20:28.730Z,97.86
2019-05-12T02:22:59.100Z,97.88
2019-05-12T02:25:30.157Z,97.97
2019-05-12T02:28:01.101Z,98.05
2019-05-12T02:30:32.221Z,98.11
2019-05-12T02:33:05.183Z,98.38
2019-05-12T02:35:35.823Z,98.55
2019-05-12T02:38:07.101Z,98.31
2019-05-12T02:40:37.948Z,98.44
2019-05-12T02:43:09.012Z,98.71
2019-05-12T02:45:39.972Z,99.45
2019-05-12T02:48:14.144Z,99.50
2019-05-12T02:50:45.211Z,99.58
2019-05-12T02:53:16.121Z,99.52
2019-05-12T02:55:48.290Z,99.50
2019-05-12T02:58:21.602Z,99.29
2019-05-12T03:00:54.802Z,99.14
2019-05-12T03:03:28.611Z,99.13
2019-05-12T03:06:00.715Z,99.07
2019-05-12T03:08:34.818Z,99.05
2019-05-12T03:11:06.720Z,98.99
2019-05-12T03:13:37.795Z,98.92
2019-05-12T03:16:08.859Z,98.92
2019-05-12T03:18:39.815Z,99.08
2019-05-12T03:21:10.884Z,99.19
2019-05-12T03:23:44.487Z,99.31
2019-05-12T03:26:15.449Z,99.35
2019-05-12T03:28:46.311Z,99.28
2019-05-12T03:31:23.626Z,99.19
2019-05-12T03:33:54.113Z,99.19
2019-05-12T03:36:32.492Z,99.09
2019-05-12T03:38:55.393Z,98.90
2019-05-12T03:41:26.522Z,98.94
2019-05-12T03:43:59.007Z,98.76
2019-05-12T03:46:29.751Z,98.61
2019-05-12T03:49:00.728Z,98.48
2019-05-12T03:51:34.743Z,98.45
2019-05-12T03:54:05.148Z,98.31
2019-05-12T03:56:36.054Z,98.01
2019-05-12T03:59:08.137Z,97.55
2019-05-12T04:01:39.403Z,96.85
2019-05-12T04:04:10.485Z,96.86
2019-05-12T04:06:45.013Z,96.40
2019-05-12T04:09:15.471Z,96.08
2019-05-12T04:11:46.100Z,94.78
2019-05-12T04:14:17.058Z,94.88
2019-05-12T04:16:47.923Z,94.23
2019-05-12T04:19:21.122Z,93.83
2019-05-12T04:21:54.707Z,93.54
2019-05-12T04:24:25.199Z,93.75
2019-05-12T04:26:56.340Z,93.88
2019-05-12T04:29:27.616Z,94.11
2019-05-12T04:31:58.687Z,94.12
2019-05-12T04:34:29.637Z,93.66
2019-05-12T04:37:04.561Z,93.01
2019-05-12T04:39:35.217Z,92.37
2019-05-12T04:42:07.627Z,91.91
2019-05-12T04:44:38.672Z,90.60
2019-05-12T04:47:09.545Z,89.80
2019-05-12T04:49:40.586Z,88.23
2019-05-12T04:52:11.558Z,85.87
2019-05-12T04:54:44.455Z,85.13
2019-05-12T04:57:15.159Z,83.53
2019-05-12T04:59:47.185Z,81.85
2019-05-12T05:02:17.868Z,82.30
2019-05-12T05:04:48.704Z,82.69
2019-05-12T05:07:19.767Z,82.04
2019-05-12T05:09:50.732Z,81.45
2019-05-12T05:12:23.943Z,80.92
2019-05-12T05:14:54.803Z,80.59
2019-05-12T05:17:25.747Z,80.01
2019-05-12T05:19:56.703Z,79.05
2019-05-12T05:22:27.542Z,79.55
2019-05-12T05:24:58.620Z,77.85
2019-05-12T05:27:29.578Z,77.63
2019-05-12T05:30:00.443Z,77.18
2019-05-12T05:32:33.715Z,76.42
2019-05-12T05:35:07.428Z,75.75
2019-05-12T05:37:41.337Z,75.67
2019-05-12T05:40:09.993Z,74.53
2019-05-12T05:42:40.953Z,73.44
2019-05-12T05:45:19.576Z,73.92
2019-05-12T05:47:44.814Z,71.08
2019-05-12T05:50:18.402Z,70.63
2019-05-12T05:52:48.164Z,70.79
2019-05-12T05:55:20.316Z,68.72
2019-05-12T05:57:53.530Z,69.86
2019-05-12T06:00:26.362Z,67.47
2019-05-12T06:02:57.821Z,67.21
2019-05-12T06:05:30.820Z,67.84
2019-05-12T06:08:00.664Z,68.16
2019-05-12T06:10:36.259Z,65.62
2019-05-12T06:13:04.307Z,66.02
2019-05-12T06:15:40.426Z,64.43
2019-05-12T06:18:07.975Z,64.92
2019-05-12T06:20:38.843Z,63.69
2019-05-12T06:23:09.888Z,63.80
2019-05-12T06:25:47.476Z,63.39
2019-05-12T06:28:14.573Z,63.08
2019-05-12T06:30:49.446Z,62.70
2019-05-12T06:33:24.785Z,63.59
2019-05-12T06:35:49.779Z,62.92
2019-05-12T06:38:20.753Z,60.24
2019-05-12T06:40:51.506Z,61.09
2019-05-12T06:43:24.273Z,61.11
2019-05-12T06:45:54.755Z,60.02
2019-05-12T06:48:30.069Z,60.81
2019-05-12T06:50:57.797Z,60.95
2019-05-12T06:53:30.913Z,61.75
2019-05-12T06:56:00.921Z,60.73
2019-05-12T06:58:34.453Z,62.03
2019-05-12T07:01:10.960Z,63.15
2019-05-12T07:03:37.910Z,61.61
2019-05-12T07:06:09.258Z,62.10
2019-05-12T07:08:41.049Z,60.67
2019-05-12T07:11:14.304Z,61.90
2019-05-12T07:13:44.379Z,62.24
2019-05-12T07:16:23.143Z,62.09
2019-05-12T07:18:49.487Z,61.72
2019-05-12T07:21:24.017Z,61.58
2019-05-12T07:23:53.575Z,61.06
2019-05-12T07:26:24.700Z,58.86
2019-05-12T07:28:55.671Z,60.36
2019-05-12T07:31:26.836Z,61.58
2019-05-12T07:33:57.792Z,60.75
2019-05-12T07:36:33.226Z,61.40
2019-05-12T07:39:08.366Z,63.73
2019-05-12T07:41:42.268Z,61.19
2019-05-12T07:44:15.098Z,60.61
2019-05-12T07:46:49.438Z,60.10
2019-05-12T07:49:24.232Z,60.61
2019-05-12T07:51:50.644Z,60.21
2019-05-12T07:54:23.583Z,62.26
2019-05-12T07:56:54.402Z,59.77
2019-05-12T07:59:26.612Z,59.78
2019-05-12T08:01:58.496Z,60.22
2019-05-12T08:04:31.735Z,60.35
2019-05-12T08:07:03.731Z,58.45
2019-05-12T08:09:36.328Z,57.96
2019-05-12T08:12:09.613Z,56.36
2019-05-12T08:14:39.113Z,57.78
2019-05-12T08:17:11.932Z,57.13
2019-05-12T08:19:44.351Z,57.72
2019-05-12T08:22:19.009Z,59.41
2019-05-12T08:24:53.578Z,59.53
2019-05-12T08:27:26.160Z,59.73
2019-05-12T08:30:00.917Z,58.90
2019-05-12T08:32:31.341Z,58.96
2019-05-12T08:35:05.021Z,57.96
2019-05-12T08:37:35.604Z,57.80
2019-05-12T08:40:07.882Z,57.64
2019-05-12T08:42:38.465Z,57.87
2019-05-12T08:45:15.151Z,58.09
2019-05-12T08:47:44.055Z,59.46
2019-05-12T08:50:14.306Z,56.97
2019-05-12T08:52:45.252Z,57.10
2019-05-12T08:55:17.002Z,57.45
2019-05-12T08:57:49.733Z,54.74
2019-05-12T09:00:23.785Z,57.66
2019-05-12T09:02:54.622Z,59.47
2019-05-12T09:05:33.611Z,56.82
2019-05-12T09:07:58.796Z,57.09
2019-05-12T09:10:29.444Z,54.90
2019-05-12T09:13:00.404Z,55.47
2019-05-12T09:15:31.456Z,55.08
2019-05-12T09:18:04.883Z,53.42
2019-05-12T09:20:39.406Z,53.55
2019-05-12T09:23:10.678Z,55.13
2019-05-12T09:25:45.086Z,55.16
2019-05-12T09:28:14.208Z,55.13
2019-05-12T09:30:49.194Z,54.62
2019-05-12T09:33:21.558Z,54.35
2019-05-12T09:35:49.455Z,54.30
2019-05-12T09:38:23.129Z,54.43
2019-05-12T09:41:00.577Z,53.92
2019-05-12T09:43:25.192Z,53.10
2019-05-12T09:45:56.610Z,53.89
2019-05-12T09:48:29.054Z,54.91
2019-05-12T09:51:00.748Z,55.83
2019-05-12T09:53:34.104Z,52.28
2019-05-12T09:56:04.894Z,52.29
2019-05-12T09:58:36.574Z,53.94
2019-05-12T10:01:07.219Z,55.68
2019-05-12T10:03:40.003Z,54.54
2019-05-12T10:06:11.514Z,55.41
2019-05-12T10:08:43.439Z,54.69
2019-05-12T10:11:16.616Z,55.15
2019-05-12T10:13:47.227Z,52.29
2019-05-12T10:16:18.188Z,52.52
2019-05-12T10:18:51.774Z,53.33
2019-05-12T10:21:23.560Z,52.68
2019-05-12T10:24:00.093Z,53.94
2019-05-12T10:26:26.011Z,55.53
2019-05-12T10:28:58.434Z,54.64
2019-05-12T10:31:34.439Z,55.40
2019-05-12T10:34:20.157Z,53.98
2019-05-12T10:36:53.488Z,52.94
2019-05-12T10:39:24.671Z,53.21
2019-05-12T10:41:55.382Z,53.71
2019-05-12T10:44:29.922Z,53.70
2019-05-12T10:47:00.369Z,53.85
2019-05-12T10:49:33.596Z,54.29
2019-05-12T10:52:04.075Z,54.36
2019-05-12T10:54:34.983Z,54.35
2019-05-12T10:57:05.641Z,53.84
2019-05-12T10:59:38.933Z,54.82
2019-05-12T11:02:08.476Z,52.86
2019-05-12T11:04:41.265Z,50.49
2019-05-12T11:07:13.578Z,49.52
2019-05-12T11:09:44.314Z,49.65
2019-05-12T11:12:19.106Z,48.99
2019-05-12T11:14:48.055Z,48.52
2019-05-12T11:17:18.910Z,49.64
2019-05-12T11:19:51.510Z,49.19
2019-05-12T11:22:22.377Z,50.99
2019-05-12T11:24:55.717Z,49.99
2019-05-12T11:27:25.725Z,49.04
2019-05-12T11:29:56.787Z,50.48
2019-05-12T11:32:28.859Z,49.78
2019-05-12T11:35:00.443Z,49.38
2019-05-12T11:37:33.698Z,47.02
2019-05-12T11:40:04.507Z,49.91
2019-05-12T11:42:35.555Z,50.43
2019-05-12T11:45:07.633Z,49.78
2019-05-12T11:47:38.712Z,47.96
2019-05-12T11:50:10.219Z,48.18
2019-05-12T11:52:40.816Z,49.25
2019-05-12T11:55:13.493Z,49.15
2019-05-12T11:57:44.606Z,47.69
2019-05-12T12:00:17.406Z,46.15
2019-05-12T12:02:49.682Z,47.97
2019-05-12T12:05:20.740Z,47.13
2019-05-12T12:07:53.427Z,45.81
2019-05-12T12:10:24.070Z,44.56
2019-05-12T12:12:54.926Z,47.80
2019-05-12T12:15:30.151Z,46.31
2019-05-12T12:18:04.051Z,48.44
2019-05-12T12:20:33.535Z,49.38
2019-05-12T12:23:10.961Z,52.06
2019-05-12T12:25:36.728Z,52.95
2019-05-12T12:28:07.576Z,51.58
2019-05-12T12:30:38.608Z,52.39
2019-05-12T12:33:09.670Z,53.66
2019-05-12T12:35:40.610Z,54.66
2019-05-12T12:38:13.936Z,54.44
2019-05-12T12:40:44.302Z,54.18
2019-05-12T12:43:15.242Z,54.24
2019-05-12T12:45:50.482Z,54.05
2019-05-12T12:48:28.097Z,54.42
2019-05-12T12:50:53.848Z,54.90
2019-05-12T12:53:27.463Z,54.36
2019-05-12T12:55:58.795Z,56.23
2019-05-12T12:58:31.527Z,54.91
2019-05-12T13:01:03.701Z,55.06
2019-05-12T13:03:34.561Z,55.89
2019-05-12T13:06:05.527Z,56.63
2019-05-12T13:08:36.382Z,57.01
2019-05-12T13:11:07.323Z,55.67
2019-05-12T13:13:38.286Z,54.77
2019-05-12T13:16:09.139Z,56.55
2019-05-12T13:18:40.206Z,56.56
2019-05-12T13:21:11.057Z,56.73
2019-05-12T13:23:41.931Z,56.91
2019-05-12T13:26:13.472Z,56.11
2019-05-12T13:28:45.435Z,57.05
2019-05-12T13:31:16.865Z,58.11
2019-05-12T13:33:49.449Z,61.53
2019-05-12T13:36:20.200Z,63.11
2019-05-12T13:38:51.570Z,61.24
2019-05-12T13:41:22.219Z,60.59
2019-05-12T13:43:56.145Z,62.86
2019-05-12T13:46:25.346Z,64.57
2019-05-12T13:48:59.620Z,64.16
2019-05-12T13:51:28.606Z,63.92
2019-05-12T13:53:59.670Z,64.48
2019-05-12T13:56:33.589Z,64.85
2019-05-12T13:59:04.241Z,66.24
2019-05-12T14:01:40.265Z,65.63
2019-05-12T14:04:08.821Z,66.53
2019-05-12T14:06:39.864Z,66.25
2019-05-12T14:09:13.421Z,66.03
2019-05-12T14:11:44.553Z,63.52
2019-05-12T14:14:15.752Z,63.02
2019-05-12T14:16:56.977Z,60.01
2019-05-12T14:19:19.072Z,61.78
2019-05-12T14:21:50.338Z,63.03
2019-05-12T14:24:23.246Z,62.34
2019-05-12T14:26:53.555Z,60.12
2019-05-12T14:29:26.709Z,61.80
2019-05-12T14:32:02.443Z,63.31
2019-05-12T14:34:29.305Z,64.29
2019-05-12T14:37:09.130Z,65.03
2019-05-12T14:39:34.428Z,65.60
2019-05-12T14:42:05.366Z,65.86
2019-05-12T14:44:43.876Z,65.75
2019-05-12T14:47:08.801Z,65.22
2019-05-12T14:49:39.673Z,65.53
2019-05-12T14:52:10.623Z,65.11
2019-05-12T14:54:43.440Z,63.94
2019-05-12T14:57:13.959Z,63.82
2019-05-12T14:59:45.144Z,64.50
2019-05-12T15:02:19.479Z,63.70
2019-05-12T15:04:49.711Z,64.65
2019-05-12T15:07:20.883Z,65.68
2019-05-12T15:09:53.878Z,65.10
2019-05-12T15:12:25.055Z,65.26
2019-05-12T15:14:56.259Z,65.17
2019-05-12T15:17:27.376Z,64.54
2019-05-12T15:20:00.328Z,65.71
2019-05-12T15:22:33.042Z,65.82
2019-05-12T15:25:05.496Z,66.55
2019-05-12T15:27:44.348Z,66.20
2019-05-12T15:30:20.323Z,66.25
2019-05-12T15:32:41.921Z,66.77
2019-05-12T15:35:14.071Z,67.16
2019-05-12T15:37:45.066Z,66.52
2019-05-12T15:40:20.337Z,65.69
2019-05-12T15:42:55.091Z,64.86
2019-05-12T15:45:24.487Z,66.32
2019-05-12T15:47:55.328Z,66.79
2019-05-12T15:50:26.406Z,67.66
2019-05-12T15:52:57.367Z,66.97
2019-05-12T15:55:32.654Z,69.65
2019-05-12T15:58:05.532Z,68.69
2019-05-12T16:00:43.876Z,70.74
2019-05-12T16:03:28.588Z,71.16
2019-05-12T16:06:01.277Z,70.98
2019-05-12T16:08:31.850Z,70.91
2019-05-12T16:11:05.126Z,70.91
2019-05-12T16:13:35.715Z,72.27
2019-05-12T16:16:06.846Z,71.84
2019-05-12T16:18:40.554Z,72.79
2019-05-12T16:21:09.819Z,72.71
2019-05-12T16:23:40.759Z,70.96
2019-05-12T16:26:14.678Z,72.12
2019-05-12T16:28:44.417Z,72.01
2019-05-12T16:31:15.471Z,72.50
2019-05-12T16:33:46.328Z,72.57
2019-05-12T16:36:17.714Z,73.07
2019-05-12T16:38:50.161Z,74.79
2019-05-12T16:41:27.978Z,74.42
2019-05-12T16:43:53.797Z,73.18
2019-05-12T16:46:24.923Z,74.75
2019-05-12T16:48:57.070Z,76.87
2019-05-12T16:51:27.962Z,77.04
2019-05-12T16:53:58.922Z,76.96
2019-05-12T16:56:29.941Z,76.36
2019-05-12T16:59:00.822Z,76.85
2019-05-12T17:01:33.468Z,77.02
2019-05-12T17:04:04.507Z,77.78
2019-05-12T17:06:38.608Z,77.82
2019-05-12T17:09:08.765Z,78.98
2019-05-12T17:11:47.157Z,78.43
2019-05-12T17:14:11.912Z,79.09
2019-05-12T17:16:46.522Z,79.38
2019-05-12T17:19:15.570Z,78.98
2019-05-12T17:21:49.496Z,79.08
2019-05-12T17:24:19.014Z,80.57
2019-05-12T17:26:50.077Z,81.02
2019-05-12T17:29:21.032Z,81.84
2019-05-12T17:31:53.575Z,83.54
2019-05-12T17:34:25.898Z,83.26
2019-05-12T17:37:00.388Z,83.15
2019-05-12T17:39:34.213Z,83.09
2019-05-12T17:42:01.349Z,83.33
2019-05-12T17:44:36.617Z,83.57
2019-05-12T17:47:05.003Z,84.02
2019-05-12T17:49:38.969Z,84.39
2019-05-12T17:52:13.250Z,84.65
2019-05-12T17:54:40.539Z,85.10
2019-05-12T17:57:17.865Z,85.24
2019-05-12T17:59:44.769Z,85.47
2019-05-12T18:02:16.935Z,85.48
2019-05-12T18:04:49.919Z,85.72
2019-05-12T18:07:20.343Z,85.25
2019-05-12T18:09:56.816Z,86.60
2019-05-12T18:12:26.796Z,87.54
2019-05-12T18:14:56.063Z,87.73
2019-05-12T18:17:27.019Z,87.78
2019-05-12T18:20:00.844Z,87.57
2019-05-12T18:22:30.377Z,87.74
2019-05-12T18:25:04.135Z,88.22
2019-05-12T18:27:36.642Z,89.01
2019-05-12T18:30:07.470Z,89.96
2019-05-12T18:32:38.105Z,89.97
2019-05-12T18:35:09.150Z,89.91
2019-05-12T18:37:40.128Z,89.83
2019-05-12T18:40:11.597Z,89.61
2019-05-12T18:42:42.150Z,89.69
2019-05-12T18:45:17.737Z,89.67
2019-05-12T18:47:46.924Z,89.73
2019-05-12T18:50:20.763Z,89.27
2019-05-12T18:52:50.783Z,89.32
2019-05-12T18:55:23.590Z,88.85
2019-05-12T18:57:54.655Z,88.86
2019-05-12T19:00:26.504Z,89.13
2019-05-12T19:02:59.736Z,89.24
2019-05-12T19:05:30.818Z,89.77
2019-05-12T19:08:03.817Z,90.12
2019-05-12T19:10:38.590Z,90.06
2019-05-12T19:13:07.608Z,89.95
2019-05-12T19:15:38.597Z,90.10
2019-05-12T19:18:09.572Z,90.00
2019-05-12T19:20:40.633Z,89.92
2019-05-12T19:23:13.610Z,89.98
2019-05-12T19:25:43.985Z,90.07
2019-05-12T19:28:14.925Z,90.46
2019-05-12T19:30:46.184Z,90.44
2019-05-12T19:33:16.958Z,90.63
2019-05-12T19:35:50.437Z,90.73
2019-05-12T19:38:21.128Z,90.09
2019-05-12T19:40:58.759Z,90.02
2019-05-12T19:43:26.007Z,90.29
2019-05-12T19:46:03.115Z,90.51
2019-05-12T19:48:35.161Z,90.67
2019-05-12T19:51:17.868Z,90.60
2019-05-12T19:53:34.426Z,90.67
2019-05-12T19:56:05.438Z,90.63
2019-05-12T19:58:36.258Z,90.68
2019-05-12T20:01:07.116Z,90.27
2019-05-12T20:03:38.057Z,89.91
2019-05-12T20:06:09.540Z,90.34
2019-05-12T20:08:43.706Z,90.59
2019-05-12T20:11:14.718Z,90.09
2019-05-12T20:13:45.590Z,89.25
2019-05-12T20:16:21.828Z,88.85
2019-05-12T20:18:49.738Z,88.63
2019-05-12T20:21:25.906Z,89.87
2019-05-12T20:23:54.421Z,90.10
2019-05-12T20:26:25.187Z,89.95
2019-05-12T20:28:56.642Z,90.02
2019-05-12T20:31:27.733Z,89.84
2019-05-12T20:34:04.584Z,89.63
2019-05-12T20:36:33.520Z,89.55
2019-05-12T20:39:10.030Z,89.42
2019-05-12T20:41:38.608Z,89.22
2019-05-12T20:44:15.393Z,89.38
2019-05-12T20:46:43.245Z,89.50
2019-05-12T20:49:15.033Z,89.40
2019-05-12T20:51:48.190Z,89.34
2019-05-12T20:54:18.923Z,89.54
2019-05-12T20:56:53.049Z,89.97
2019-05-12T20:59:28.133Z,90.14
2019-05-12T21:01:57.221Z,90.39
2019-05-12T21:04:37.062Z,90.36
2019-05-12T21:07:00.343Z,89.99
2019-05-12T21:09:31.423Z,89.36
2019-05-12T21:12:02.263Z,89.61
2019-05-12T21:14:33.535Z,89.63
2019-05-12T21:17:09.352Z,89.69
2019-05-12T21:19:38.749Z,89.78
2019-05-12T21:22:09.183Z,89.73
2019-05-12T21:24:40.240Z,89.81
2019-05-12T21:27:18.264Z,89.72
2019-05-12T21:29:43.842Z,89.61
2019-05-12T21:32:16.913Z,89.34
2019-05-12T21:34:47.126Z,89.07
2019-05-12T21:37:18.203Z,88.69
2019-05-12T21:39:51.002Z,88.33
2019-05-12T21:42:24.961Z,88.29
2019-05-12T21:44:53.839Z,88.05
2019-05-12T21:47:24.797Z,88.21
2019-05-12T21:49:57.910Z,88.30
2019-05-12T21:52:34.940Z,88.36
2019-05-12T21:55:00.765Z,88.70
2019-05-12T21:57:34.385Z,89.14
2019-05-12T22:00:10.690Z,89.19
2019-05-12T22:02:38.509Z,89.72
2019-05-12T22:05:13.903Z,90.08
2019-05-12T22:07:42.178Z,90.17
2019-05-12T22:10:15.563Z,89.99
2019-05-12T22:12:46.550Z,89.66
2019-05-12T22:15:28.586Z,89.42
2019-05-12T22:18:00.537Z,89.01
2019-05-12T22:20:35.689Z,88.73
2019-05-12T22:23:11.563Z,88.00
2019-05-12T22:25:39.444Z,87.35
2019-05-12T22:28:10.591Z,86.80
2019-05-12T22:30:43.568Z,86.13
2019-05-12T22:33:14.035Z,85.06
2019-05-12T22:35:45.121Z,85.00
2019-05-12T22:38:20.847Z,84.81
2019-05-12T22:40:49.271Z,84.35
2019-05-12T22:43:23.153Z,84.02
2019-05-12T22:45:54.786Z,84.02
2019-05-12T22:48:29.619Z,83.76
2019-05-12T22:50:58.216Z,83.62
2019-05-12T22:53:30.243Z,83.60
2019-05-12T22:56:03.025Z,83.59
2019-05-12T22:58:33.975Z,83.90
2019-05-12T23:01:05.598Z,84.01
2019-05-12T23:03:36.643Z,84.00
2019-05-12T23:06:20.469Z,84.42
2019-05-12T23:08:45.157Z,84.73
2019-05-12T23:11:14.482Z,85.00
2019-05-12T23:13:45.653Z,85.07
2019-05-12T23:16:19.322Z,85.31
2019-05-12T23:18:49.102Z,85.43
2019-05-12T23:21:20.063Z,85.33
2019-05-12T23:23:57.105Z,85.27
2019-05-12T23:26:24.475Z,85.16
2019-05-12T23:28:55.598Z,85.22
2019-05-12T23:31:30.229Z,84.96
2019-05-12T23:33:59.254Z,84.42
2019-05-12T23:36:36.580Z,84.76
2019-05-12T23:39:04.778Z,85.24
2019-05-12T23:41:35.299Z,85.36
2019-05-12T23:44:06.363Z,85.54
2019-05-12T23:46:37.316Z,85.33
2019-05-12T23:49:08.178Z,85.50
2019-05-12T23:51:39.234Z,85.16
2019-05-12T23:54:10.072Z,84.90
2019-05-12T23:56:41.150Z,84.89
2019-05-12T23:59:13.565Z,84.86
